Time;durP1;ratioP1;P1;durP2;ratioP2;P2;SDS_P1;SDS_P2;PMS_P1;PMS_P2;Temp;Humidity;BMP_temperature;BMP_pressure;BME280_temperature;BME280_humidity;BME280_pressure;Samples;Min_cycle;Max_cycle;Signal;HPM_P1;HPM_P2
2021/10/08 11:33:07;;;;;;;5.63;3.30;;;;;;;;;;6181656;22;21162;31
2021/10/08 11:35:34;;;;;;;5.05;3.90;;;;;;;;;;6156531;23;20017;-76
2021/10/08 11:38:04;;;;;;;5.45;4.32;;;;;;;;;;6156821;23;20012;-75
2021/10/08 11:40:45;;;;;;;8.13;4.38;;;;;;;;;;6156870;23;20009;-78
2021/10/08 11:43:31;;;;;;;8.18;4.68;;;;;;;;;;6127540;23;20418;-78
2021/10/08 11:46:11;;;;;;;6.72;4.90;;;;;;;;;;6127307;23;20520;-78
2021/10/08 11:48:41;;;;;;;9.38;5.47;;;;;;;;;;6127715;23;20021;-81
2021/10/08 11:51:09;;;;;;;8.52;5.95;;;;;;;;;;6125719;23;20006;-80
2021/10/08 11:53:48;;;;;;;7.75;5.78;;;;;;;;;;6127456;23;20041;-81
2021/10/08 11:56:25;;;;;;;9.20;5.93;;;;;;;;;;6150416;23;20393;-77
2021/10/08 11:58:51;;;;;;;10.02;6.68;;;;;;;;;;6125831;23;20005;-76
2021/10/08 12:01:21;;;;;;;9.23;6.32;;;;;;;;;;6125573;23;20088;-76
2021/10/08 12:03:47;;;;;;;9.55;5.18;;;;;;;;;;6127427;23;20422;-79
2021/10/08 12:06:30;;;;;;;10.00;6.85;;;;;;;;;;6127407;23;20054;-77
2021/10/08 12:08:58;;;;;;;10.63;7.38;;;;;;;;;;6125641;23;20066;-77
2021/10/08 12:11:27;;;;;;;9.05;6.35;;;;;;;;;;6127197;23;19998;-76
2021/10/08 12:14:04;;;;;;;9.50;7.22;;;;;;;;;;6127071;23;20013;-77
2021/10/08 12:16:33;;;;;;;12.13;7.22;;;;;;;;;;6127478;23;20004;-76
2021/10/08 12:18:59;;;;;;;9.98;7.22;;;;;;;;;;6127237;23;20062;-78
2021/10/08 12:21:38;;;;;;;9.60;7.13;;;;;;;;;;6127021;23;20417;-76
2021/10/08 12:24:12;;;;;;;12.60;8.45;;;;;;;;;;6126990;23;20002;-75
2021/10/08 12:26:42;;;;;;;10.15;5.80;;;;;;;;;;6127263;23;20085;-76
2021/10/08 12:29:13;;;;;;;9.82;7.03;;;;;;;;;;6125784;23;20041;-78
2021/10/08 12:31:49;;;;;;;8.70;5.85;;;;;;;;;;6126848;23;20006;-76
2021/10/08 12:34:38;;;;;;;9.75;5.95;;;;;;;;;;6126731;23;20018;-76
2021/10/08 12:37:07;;;;;;;13.60;7.10;;;;;;;;;;6126629;23;20030;-76
2021/10/08 12:39:39;;;;;;;8.63;5.93;;;;;;;;;;6127290;23;20040;-75
2021/10/08 12:42:17;;;;;;;9.10;5.72;;;;;;;;;;6126925;23;20014;-76
2021/10/08 12:44:48;;;;;;;7.70;5.43;;;;;;;;;;6126755;23;20006;-76
2021/10/08 12:47:24;;;;;;;8.32;5.43;;;;;;;;;;6126740;23;20006;-75
2021/10/08 12:49:51;;;;;;;11.20;6.47;;;;;;;;;;6126960;23;20009;-75
2021/10/08 12:52:30;;;;;;;12.32;5.13;;;;;;;;;;6126584;23;20072;-76
2021/10/08 12:55:25;;;;;;;6.97;4.40;;;;;;;;;;6127002;23;20061;-75
2021/10/08 12:58:02;;;;;;;7.78;4.95;;;;;;;;;;6120339;23;20070;-76
2021/10/08 13:00:50;;;;;;;6.57;4.88;;;;;;;;;;6127232;23;20333;-76
2021/10/08 13:03:34;;;;;;;6.00;4.00;;;;;;;;;;6123191;23;20414;-76
2021/10/08 13:06:01;;;;;;;8.43;5.32;;;;;;;;;;6127301;23;20042;-75
2021/10/08 13:08:30;;;;;;;6.55;4.28;;;;;;;;;;6127412;23;20021;-75
2021/10/08 13:11:14;;;;;;;8.63;4.03;;;;;;;;;;6127100;23;20104;-77
2021/10/08 13:13:47;;;;;;;8.50;3.97;;;;;;;;;;6127228;23;20005;-75
2021/10/08 13:16:27;;;;;;;5.15;3.85;;;;;;;;;;6127432;23;20013;-83
2021/10/08 13:18:52;;;;;;;6.05;3.13;;;;;;;;;;6127259;23;20066;-79
2021/10/08 13:21:20;;;;;;;5.55;2.95;;;;;;;;;;6127160;23;20096;-80
2021/10/08 13:23:50;;;;;;;4.88;3.17;;;;;;;;;;6127574;23;20081;-81
2021/10/08 13:26:16;;;;;;;7.20;3.70;;;;;;;;;;6127362;23;20329;-81
2021/10/08 13:28:42;;;;;;;4.55;3.28;;;;;;;;;;6127587;23;20056;-78
2021/10/08 13:31:08;;;;;;;6.65;3.13;;;;;;;;;;6127191;23;20006;-78
2021/10/08 13:33:34;;;;;;;5.85;3.35;;;;;;;;;;6127589;23;20089;-77
2021/10/08 13:36:02;;;;;;;6.32;3.25;;;;;;;;;;6127287;23;20093;-78
2021/10/08 13:38:29;;;;;;;4.88;3.45;;;;;;;;;;6128122;23;20017;-82
2021/10/08 13:40:57;;;;;;;7.60;3.45;;;;;;;;;;6128698;23;20006;-75
2021/10/08 13:43:27;;;;;;;4.45;2.83;;;;;;;;;;6129444;23;20037;-76
2021/10/08 13:45:53;;;;;;;4.28;2.90;;;;;;;;;;6129250;23;20080;-79
2021/10/08 13:48:19;;;;;;;5.32;2.63;;;;;;;;;;6129114;23;20349;-78
2021/10/08 13:50:45;;;;;;;5.20;2.75;;;;;;;;;;6127553;23;20068;-81
2021/10/08 13:53:12;;;;;;;7.38;3.38;;;;;;;;;;6131174;23;20002;-76
2021/10/08 13:55:37;;;;;;;4.10;2.50;;;;;;;;;;6131523;23;20006;-78
2021/10/08 13:58:08;;;;;;;4.15;2.38;;;;;;;;;;6130530;23;20461;-76
2021/10/08 14:00:42;;;;;;;2.92;2.30;;;;;;;;;;6151586;23;20020;-75
2021/10/08 14:08:34;;;;;;;4.32;3.00;;;;;;;;;;6127703;23;20381;-79
2021/10/08 14:10:59;;;;;;;5.55;2.85;;;;;;;;;;6128545;23;20038;-79
2021/10/08 14:13:25;;;;;;;6.07;2.50;;;;;;;;;;6128372;23;20002;-79
2021/10/08 14:15:50;;;;;;;3.25;2.90;;;;;;;;;;6128321;23;20033;-82
2021/10/08 14:18:16;;;;;;;5.00;2.95;;;;;;;;;;6126905;23;20039;-82
2021/10/08 14:20:42;;;;;;;4.35;2.85;;;;;;;;;;6128148;23;20010;-79
2021/10/08 14:23:09;;;;;;;3.88;2.50;;;;;;;;;;6128673;23;20013;-83
2021/10/08 14:25:35;;;;;;;4.13;2.50;;;;;;;;;;6128219;23;20052;-78
2021/10/08 14:28:00;;;;;;;4.40;2.42;;;;;;;;;;6128353;23;20030;-77
2021/10/08 14:30:26;;;;;;;3.17;2.22;;;;;;;;;;6128145;23;20006;-78
2021/10/08 14:32:52;;;;;;;3.22;2.30;;;;;;;;;;6128032;23;20010;-79
2021/10/08 14:35:17;;;;;;;3.13;1.90;;;;;;;;;;6126326;23;20022;-78
2021/10/08 14:37:43;;;;;;;4.05;2.20;;;;;;;;;;6128056;23;20073;-77
2021/10/08 14:40:09;;;;;;;3.55;2.13;;;;;;;;;;6127867;23;20317;-77
2021/10/08 14:42:35;;;;;;;4.10;2.22;;;;;;;;;;6128023;23;20452;-76
2021/10/08 14:45:05;;;;;;;2.78;2.10;;;;;;;;;;6127948;23;20003;-75
2021/10/08 14:47:31;;;;;;;3.30;2.08;;;;;;;;;;6127828;23;20481;-76
2021/10/08 14:49:56;;;;;;;3.50;2.47;;;;;;;;;;6127644;23;19998;-76
2021/10/08 14:52:23;;;;;;;4.78;3.70;;;;;;;;;;6130222;23;20006;-76
2021/10/08 14:59:55;;;;;;;7.85;3.72;;;;;;;;;;6134396;23;20013;-81
2021/10/08 15:02:21;;;;;;;6.15;4.20;;;;;;;;;;6128615;23;20002;-81
2021/10/08 15:04:48;;;;;;;5.18;3.78;;;;;;;;;;6128060;23;20381;-83
2021/10/08 15:07:14;;;;;;;8.27;3.03;;;;;;;;;;6127705;23;20063;-80
2021/10/08 15:09:40;;;;;;;5.93;3.10;;;;;;;;;;6127997;23;20052;-84
2021/10/08 15:12:07;;;;;;;7.85;3.35;;;;;;;;;;6127645;23;20037;-80
2021/10/08 15:14:33;;;;;;;3.47;2.38;;;;;;;;;;6127577;23;20010;-78
2021/10/08 15:16:59;;;;;;;4.22;2.60;;;;;;;;;;6127677;23;20447;-82
2021/10/08 15:19:26;;;;;;;5.25;2.92;;;;;;;;;;6127542;23;20013;-82
2021/10/08 15:21:52;;;;;;;4.38;2.53;;;;;;;;;;6127637;23;20089;-81
2021/10/08 15:24:18;;;;;;;4.00;2.80;;;;;;;;;;6127610;23;20001;-80
2021/10/08 15:26:44;;;;;;;4.40;2.50;;;;;;;;;;6127740;23;20072;-84
2021/10/08 15:29:10;;;;;;;3.67;2.80;;;;;;;;;;6127634;23;20009;-83
2021/10/08 15:31:36;;;;;;;2.97;2.28;;;;;;;;;;6127685;23;20002;-83
2021/10/08 15:34:02;;;;;;;6.38;2.33;;;;;;;;;;6127124;23;20022;-83
2021/10/08 15:36:27;;;;;;;4.50;3.22;;;;;;;;;;6127783;23;20006;-83
2021/10/08 15:38:53;;;;;;;6.10;2.92;;;;;;;;;;6127420;23;20295;-80
2021/10/08 15:41:19;;;;;;;6.07;3.05;;;;;;;;;;6127416;23;20080;-83
2021/10/08 15:43:44;;;;;;;5.80;3.08;;;;;;;;;;6127403;23;20009;-83
2021/10/08 15:46:10;;;;;;;4.88;3.05;;;;;;;;;;6127440;23;20424;-81
2021/10/08 15:48:36;;;;;;;6.18;3.08;;;;;;;;;;6126985;23;20006;-79
2021/10/08 15:51:02;;;;;;;6.20;3.70;;;;;;;;;;6127179;23;20326;-80
2021/10/08 15:53:28;;;;;;;7.15;4.78;;;;;;;;;;6126988;23;20029;-84
2021/10/08 15:55:53;;;;;;;7.70;5.63;;;;;;;;;;6127034;23;20359;-77
2021/10/08 15:58:19;;;;;;;10.55;5.70;;;;;;;;;;6127087;23;20039;-79
2021/10/08 16:00:44;;;;;;;6.55;4.05;;;;;;;;;;6126885;23;20410;-79
2021/10/08 16:03:10;;;;;;;6.03;3.60;;;;;;;;;;6126793;23;20002;-78
2021/10/08 16:05:35;;;;;;;5.47;2.95;;;;;;;;;;6127313;23;20005;-79
2021/10/08 16:08:08;;;;;;;4.63;2.60;;;;;;;;;;6127044;23;20090;-78
2021/10/08 17:23:19;;;;;;;6.15;4.03;;;;;;;;;;6193405;23;20044;-76
2021/10/08 17:28:31;;;;;;;8.32;3.67;;;;;;;;;;6259223;23;20014;-79
2021/10/08 17:31:15;;;;;;;5.55;3.92;;;;;;;;;;6248676;22;20075;-79
2021/10/08 17:33:48;;;;;;;6.47;3.90;;;;;;;;;;6248725;23;20005;-80
2021/10/08 17:36:16;;;;;;;5.57;3.55;;;;;;;;;;6248667;23;20001;-79
2021/10/08 17:38:41;;;;;;;7.53;4.60;;;;;;;;;;6248464;22;20039;-80
2021/10/08 17:41:07;;;;;;;7.10;4.78;;;;;;;;;;6248160;23;20004;-77
2021/10/08 17:43:32;;;;;;;5.82;4.15;;;;;;;;;;6248684;23;20008;-81
2021/10/08 17:45:58;;;;;;;7.75;4.30;;;;;;;;;;6248458;23;20000;-80
2021/10/08 17:48:29;;;;;;;10.18;5.03;;;;;;;;;;6248076;23;20027;-76
2021/10/08 17:50:55;;;;;;;5.88;4.30;;;;;;;;;;6247976;22;19996;-78
2021/10/08 17:53:23;;;;;;;6.95;3.83;;;;;;;;;;6248087;23;20000;-75
2021/10/08 17:55:50;;;;;;;6.30;3.95;;;;;;;;;;6248354;23;20000;-76
2021/10/08 17:58:18;;;;;;;8.35;4.60;;;;;;;;;;6247967;23;19996;-78
2021/10/08 18:03:19;;;;;;;7.60;4.45;;;;;;;;;;6258192;23;20008;-75
2021/10/08 18:05:44;;;;;;;6.45;3.67;;;;;;;;;;6248055;23;20004;-75
2021/10/08 18:08:10;;;;;;;5.50;3.25;;;;;;;;;;6247922;23;20012;-74
2021/10/08 18:10:35;;;;;;;7.32;3.38;;;;;;;;;;6248360;22;20007;-76
2021/10/08 18:13:01;;;;;;;9.95;5.68;;;;;;;;;;6248320;23;20459;-75
2021/10/08 18:15:26;;;;;;;6.65;4.40;;;;;;;;;;6221073;23;20031;-75
2021/10/08 18:17:52;;;;;;;5.60;3.60;;;;;;;;;;6247834;23;20011;-75
2021/10/08 18:20:17;;;;;;;5.32;3.20;;;;;;;;;;6247663;22;20008;-74
2021/10/08 18:22:43;;;;;;;4.60;3.00;;;;;;;;;;6247647;23;20450;-74
2021/10/08 18:25:08;;;;;;;6.03;3.30;;;;;;;;;;6220267;23;20008;-74
2021/10/08 18:27:34;;;;;;;6.25;3.58;;;;;;;;;;6220844;23;20029;-75
2021/10/08 18:30:01;;;;;;;7.93;3.55;;;;;;;;;;6247840;22;20008;-76
2021/10/08 18:32:27;;;;;;;6.30;3.85;;;;;;;;;;6247906;23;20004;-75
2021/10/08 18:34:53;;;;;;;7.43;3.88;;;;;;;;;;6247620;23;20438;-79
2021/10/08 18:37:18;;;;;;;6.20;3.17;;;;;;;;;;6247640;23;20008;-75
2021/10/08 18:39:44;;;;;;;5.28;3.67;;;;;;;;;;6247529;22;20002;-77
2021/10/08 18:42:10;;;;;;;5.10;3.17;;;;;;;;;;6247909;23;20079;-77
2021/10/08 18:44:35;;;;;;;7.57;4.20;;;;;;;;;;6247397;23;20051;-79
2021/10/08 18:47:00;;;;;;;6.18;3.20;;;;;;;;;;6247375;23;20035;-77
2021/10/08 18:49:27;;;;;;;7.07;3.50;;;;;;;;;;6247275;22;20335;-77
2021/10/08 18:51:52;;;;;;;8.48;4.53;;;;;;;;;;6247352;23;20454;-77
2021/10/08 18:54:18;;;;;;;6.72;4.05;;;;;;;;;;6247609;23;20004;-78
2021/10/08 18:56:44;;;;;;;7.60;4.60;;;;;;;;;;6247655;23;20350;-76
2021/10/08 18:59:09;;;;;;;7.40;4.10;;;;;;;;;;6220343;23;20331;-77
2021/10/08 19:01:35;;;;;;;6.90;4.40;;;;;;;;;;6246984;23;20062;-75
2021/10/08 19:04:00;;;;;;;9.98;5.30;;;;;;;;;;6247173;23;20083;-76
2021/10/08 19:06:27;;;;;;;7.28;4.22;;;;;;;;;;6247169;23;20004;-76
2021/10/08 19:08:58;;;;;;;6.90;3.25;;;;;;;;;;6247152;22;20004;-74
2021/10/08 19:11:30;;;;;;;7.32;4.60;;;;;;;;;;6247998;23;20085;-75
2021/10/08 19:16:46;;;;;;;6.93;4.00;;;;;;;;;;6257604;23;20378;-76
2021/10/08 19:21:37;;;;;;;5.68;3.20;;;;;;;;;;6257620;23;20008;-76
2021/10/08 19:24:10;;;;;;;5.38;3.80;;;;;;;;;;6247242;23;20051;-75
2021/10/08 19:26:36;;;;;;;6.15;3.58;;;;;;;;;;6247243;23;20012;-75
2021/10/08 19:29:02;;;;;;;5.82;3.55;;;;;;;;;;6247025;22;20015;-76
2021/10/08 19:31:27;;;;;;;6.85;3.10;;;;;;;;;;6247223;23;20058;-74
2021/10/08 19:33:53;;;;;;;6.43;3.60;;;;;;;;;;6247335;23;20003;-75
2021/10/08 19:36:19;;;;;;;7.63;4.18;;;;;;;;;;6247460;23;20035;-74
2021/10/08 19:38:45;;;;;;;5.15;3.47;;;;;;;;;;6246798;22;20007;-75
2021/10/08 19:41:10;;;;;;;4.15;2.72;;;;;;;;;;6247007;23;20008;-74
2021/10/08 19:43:37;;;;;;;5.55;3.35;;;;;;;;;;6247084;23;20027;-76
2021/10/08 19:48:35;;;;;;;5.32;3.47;;;;;;;;;;6255302;23;20004;-75
2021/10/08 19:51:01;;;;;;;4.22;3.28;;;;;;;;;;6247165;22;20004;-75
2021/10/08 19:53:29;;;;;;;4.55;3.20;;;;;;;;;;6246930;23;20004;-75
2021/10/08 19:55:55;;;;;;;4.80;3.22;;;;;;;;;;6247025;23;20050;-74
2021/10/08 19:58:20;;;;;;;7.55;4.45;;;;;;;;;;6246828;23;20031;-75
2021/10/08 20:00:46;;;;;;;5.88;3.42;;;;;;;;;;6246749;22;20297;-75
2021/10/08 20:03:11;;;;;;;6.10;3.17;;;;;;;;;;6247347;23;20004;-75
2021/10/08 20:05:44;;;;;;;6.25;3.88;;;;;;;;;;6246989;23;20075;-74
2021/10/08 20:16:12;;;;;;;5.13;3.55;;;;;;;;;;6247144;23;20474;-76
2021/10/08 20:18:39;;;;;;;4.85;3.22;;;;;;;;;;6246592;23;20000;-74
2021/10/08 20:21:05;;;;;;;4.85;3.72;;;;;;;;;;6246700;22;20423;-75
2021/10/08 20:23:32;;;;;;;4.65;3.20;;;;;;;;;;6246291;23;20015;-74
2021/10/08 20:25:57;;;;;;;6.03;3.17;;;;;;;;;;6246715;23;20471;-77
2021/10/08 20:28:23;;;;;;;5.97;3.25;;;;;;;;;;6246843;23;20031;-75
2021/10/08 20:30:48;;;;;;;5.05;2.50;;;;;;;;;;6246864;22;20052;-77
2021/10/08 20:33:19;;;;;;;4.38;2.95;;;;;;;;;;6219454;23;20047;-74
2021/10/08 20:35:46;;;;;;;6.43;3.30;;;;;;;;;;6246516;23;20331;-75
2021/10/08 20:38:12;;;;;;;7.13;4.10;;;;;;;;;;6246461;23;20423;-75
2021/10/08 20:40:38;;;;;;;7.05;3.90;;;;;;;;;;6246315;22;20004;-74
2021/10/08 20:43:03;;;;;;;4.13;2.85;;;;;;;;;;6246356;23;20000;-75
2021/10/08 20:45:29;;;;;;;4.22;3.17;;;;;;;;;;6246539;23;20007;-76
2021/10/08 20:47:54;;;;;;;7.30;3.55;;;;;;;;;;6246159;23;20399;-75
2021/10/08 20:50:20;;;;;;;6.68;3.28;;;;;;;;;;6246075;22;20039;-75
2021/10/08 20:52:47;;;;;;;6.00;3.50;;;;;;;;;;6246401;23;20083;-75
2021/10/08 20:55:14;;;;;;;4.47;3.42;;;;;;;;;;6246501;23;20000;-75
2021/10/08 20:57:40;;;;;;;5.53;3.40;;;;;;;;;;6246509;23;20424;-75
2021/10/08 21:00:07;;;;;;;5.95;3.47;;;;;;;;;;6246286;22;20004;-76
2021/10/08 21:02:32;;;;;;;8.38;4.53;;;;;;;;;;6246203;23;20075;-74
2021/10/08 21:04:58;;;;;;;6.03;4.70;;;;;;;;;;6219589;23;20027;-76
2021/10/08 21:07:25;;;;;;;9.70;4.75;;;;;;;;;;6246437;23;20431;-75
2021/10/08 21:09:54;;;;;;;6.00;3.63;;;;;;;;;;6246484;22;20004;-75
2021/10/08 21:12:19;;;;;;;6.28;2.78;;;;;;;;;;6246383;23;20011;-75
2021/10/08 21:14:45;;;;;;;4.13;2.95;;;;;;;;;;6246209;23;20000;-75
2021/10/08 21:17:10;;;;;;;6.55;3.10;;;;;;;;;;6245982;23;20028;-75
2021/10/08 21:19:36;;;;;;;5.95;3.10;;;;;;;;;;6246163;22;20031;-75
2021/10/08 21:22:01;;;;;;;4.88;3.22;;;;;;;;;;6246045;23;20008;-74
2021/10/08 21:24:27;;;;;;;9.05;4.10;;;;;;;;;;6245947;23;20066;-76
2021/10/08 21:26:52;;;;;;;7.65;3.22;;;;;;;;;;6246073;23;20078;-75
2021/10/08 21:29:17;;;;;;;4.75;3.13;;;;;;;;;;6246310;22;20043;-75
2021/10/08 21:31:44;;;;;;;6.63;3.90;;;;;;;;;;6246124;23;20034;-75
2021/10/08 21:34:10;;;;;;;5.60;3.42;;;;;;;;;;6246147;23;20016;-76
2021/10/08 21:36:38;;;;;;;6.50;3.45;;;;;;;;;;6246239;23;20005;-77
2021/10/08 21:39:12;;;;;;;6.13;3.92;;;;;;;;;;6245993;22;20351;-79
2021/10/08 21:44:09;;;;;;;5.47;3.83;;;;;;;;;;6256978;23;20008;-81
2021/10/08 21:46:36;;;;;;;4.68;3.40;;;;;;;;;;6246410;23;20004;-78
2021/10/08 21:49:02;;;;;;;5.53;3.70;;;;;;;;;;6246522;22;20007;-80
2021/10/08 21:51:27;;;;;;;5.28;3.40;;;;;;;;;;6246260;23;20000;-78
2021/10/08 21:53:53;;;;;;;5.50;3.72;;;;;;;;;;6246100;23;20004;-79
2021/10/08 21:56:19;;;;;;;7.03;4.18;;;;;;;;;;6246347;23;20000;-79
2021/10/08 21:58:45;;;;;;;7.85;4.28;;;;;;;;;;6246243;22;20004;-76
2021/10/08 22:01:28;;;;;;;6.97;4.25;;;;;;;;;;6247236;23;20011;-78
2021/10/08 22:03:56;;;;;;;6.88;3.80;;;;;;;;;;6247967;23;20058;-77
2021/10/08 22:06:23;;;;;;;8.68;4.57;;;;;;;;;;6248211;23;20003;-78
2021/10/08 22:08:48;;;;;;;6.32;4.10;;;;;;;;;;6248363;22;20419;-76
2021/10/08 22:11:14;;;;;;;6.63;4.22;;;;;;;;;;6221151;23;20009;-74
2021/10/08 22:13:42;;;;;;;8.65;4.65;;;;;;;;;;6248000;23;20392;-75
2021/10/08 22:16:09;;;;;;;5.63;4.43;;;;;;;;;;6221540;23;20028;-77
2021/10/08 22:18:37;;;;;;;8.60;4.53;;;;;;;;;;6248358;23;20001;-78
2021/10/08 22:21:05;;;;;;;7.07;4.47;;;;;;;;;;6247683;22;20498;-78
2021/10/08 22:34:13;;;;;;;5.55;3.47;;;;;;;;;;6247775;23;20027;-75
2021/10/08 22:36:39;;;;;;;6.60;4.25;;;;;;;;;;6247670;23;20008;-75
2021/10/08 22:39:04;;;;;;;6.38;3.78;;;;;;;;;;6220580;22;20047;-78
2021/10/08 22:41:30;;;;;;;8.05;4.53;;;;;;;;;;6247874;23;20427;-76
2021/10/08 22:43:56;;;;;;;6.60;4.88;;;;;;;;;;6221088;23;20384;-79
2021/10/08 22:46:22;;;;;;;6.63;4.70;;;;;;;;;;6247637;23;20323;-77
2021/10/08 22:48:48;;;;;;;6.72;4.55;;;;;;;;;;6247539;22;20000;-76
2021/10/08 22:51:13;;;;;;;7.00;4.60;;;;;;;;;;6247725;23;20068;-75
2021/10/08 22:53:39;;;;;;;8.25;5.10;;;;;;;;;;6220814;23;20089;-76
2021/10/08 22:56:05;;;;;;;7.72;5.32;;;;;;;;;;6220651;23;20008;-78
2021/10/08 22:58:30;;;;;;;10.60;5.40;;;;;;;;;;6247866;23;20326;-75
2021/10/08 23:00:56;;;;;;;6.28;4.43;;;;;;;;;;6247319;22;20014;-76
